sensor_id;sensor_type;location;lat;lon;timestamp;temperature;humidity
18648;DHT22;9453;50.294;18.644;2022-11-20T05:00:43;-4.10;99.90
18648;DHT22;9453;50.294;18.644;2022-11-20T05:03:10;-4.10;99.90
18648;DHT22;9453;50.294;18.644;2022-11-20T05:05:37;-4.00;99.90
18648;DHT22;9453;50.294;18.644;2022-11-20T05:08:04;-4.00;99.90
18648;DHT22;9453;50.294;18.644;2022-11-20T05:10:31;-4.00;99.90
18648;DHT22;9453;50.294;18.644;2022-11-20T05:12:58;-4.10;99.90
18648;DHT22;9453;50.294;18.644;2022-11-20T05:15:25;-4.10;99.90
18648;DHT22;9453;50.294;18.644;2022-11-20T05:17:53;-4.30;99.90
18648;DHT22;9453;50.294;18.644;2022-11-20T05:20:20;-4.50;99.90
18648;DHT22;9453;50.294;18.644;2022-11-20T05:22:47;-4.60;99.90
18648;DHT22;9453;50.294;18.644;2022-11-20T05:25:14;-4.50;99.90
18648;DHT22;9453;50.294;18.644;2022-11-20T05:27:45;-4.40;99.90
18648;DHT22;9453;50.294;18.644;2022-11-20T05:30:13;-4.40;99.90
18648;DHT22;9453;50.294;18.644;2022-11-20T05:32:40;-4.50;99.90
18648;DHT22;9453;50.294;18.644;2022-11-20T05:35:10;-4.60;99.90
18648;DHT22;9453;50.294;18.644;2022-11-20T05:37:37;-4.50;99.90
18648;DHT22;9453;50.294;18.644;2022-11-20T05:40:05;-4.70;99.90
18648;DHT22;9453;50.294;18.644;2022-11-20T05:42:32;-4.80;99.90
18648;DHT22;9453;50.294;18.644;2022-11-20T05:45:03;-4.90;99.90
18648;DHT22;9453;50.294;18.644;2022-11-20T05:47:32;-5.00;99.90
18648;DHT22;9453;50.294;18.644;2022-11-20T05:50:00;-5.00;99.90
18648;DHT22;9453;50.294;18.644;2022-11-20T05:52:29;-4.80;99.90
18648;DHT22;9453;50.294;18.644;2022-11-20T05:57:28;-4.80;99.90
18648;DHT22;9453;50.294;18.644;2022-11-20T05:59:55;-4.70;99.90
18648;DHT22;9453;50.294;18.644;2022-11-20T06:02:21;-4.80;99.90
18648;DHT22;9453;50.294;18.644;2022-11-20T06:04:48;-4.80;99.90
18648;DHT22;9453;50.294;18.644;2022-11-20T06:07:15;-4.90;99.90
18648;DHT22;9453;50.294;18.644;2022-11-20T06:09:43;-5.00;99.90
18648;DHT22;9453;50.294;18.644;2022-11-20T06:12:10;-5.00;99.90
18648;DHT22;9453;50.294;18.644;2022-11-20T06:14:37;-4.90;99.90
18648;DHT22;9453;50.294;18.644;2022-11-20T06:17:04;-5.00;99.90
18648;DHT22;9453;50.294;18.644;2022-11-20T06:19:31;-4.90;99.90
18648;DHT22;9453;50.294;18.644;2022-11-20T06:21:58;-5.00;99.90
18648;DHT22;9453;50.294;18.644;2022-11-20T06:24:25;-4.90;99.90
18648;DHT22;9453;50.294;18.644;2022-11-20T06:26:53;-4.80;99.90
18648;DHT22;9453;50.294;18.644;2022-11-20T06:29:20;-4.70;99.90
18648;DHT22;9453;50.294;18.644;2022-11-20T06:31:47;-4.70;99.90
18648;DHT22;9453;50.294;18.644;2022-11-20T06:34:14;-4.70;99.90
18648;DHT22;9453;50.294;18.644;2022-11-20T06:36:40;-4.60;99.90
18648;DHT22;9453;50.294;18.644;2022-11-20T06:39:08;-4.70;99.90
18648;DHT22;9453;50.294;18.644;2022-11-20T06:41:35;-4.60;99.90
18648;DHT22;9453;50.294;18.644;2022-11-20T06:44:05;-4.50;99.90
18648;DHT22;9453;50.294;18.644;2022-11-20T06:46:32;-4.70;99.90
18648;DHT22;9453;50.294;18.644;2022-11-20T06:48:59;-4.60;99.90
18648;DHT22;9453;50.294;18.644;2022-11-20T06:51:26;-4.60;99.90
18648;DHT22;9453;50.294;18.644;2022-11-20T06:53:53;-4.60;99.90
18648;DHT22;9453;50.294;18.644;2022-11-20T06:56:20;-4.60;99.90
18648;DHT22;9453;50.294;18.644;2022-11-20T06:58:47;-4.60;99.90
18648;DHT22;9453;50.294;18.644;2022-11-20T07:01:16;-4.50;99.90
18648;DHT22;9453;50.294;18.644;2022-11-20T07:03:45;-4.50;99.90
18648;DHT22;9453;50.294;18.644;2022-11-20T07:06:12;-4.40;99.90
18648;DHT22;9453;50.294;18.644;2022-11-20T07:08:39;-4.50;99.90
18648;DHT22;9453;50.294;18.644;2022-11-20T07:11:07;-4.40;99.90
18648;DHT22;9453;50.294;18.644;2022-11-20T07:13:34;-4.30;99.90
18648;DHT22;9453;50.294;18.644;2022-11-20T07:16:02;-4.20;99.90
18648;DHT22;9453;50.294;18.644;2022-11-20T07:18:31;-4.20;99.90
18648;DHT22;9453;50.294;18.644;2022-11-20T07:21:00;-4.10;99.90
18648;DHT22;9453;50.294;18.644;2022-11-20T07:23:27;-4.10;99.90
18648;DHT22;9453;50.294;18.644;2022-11-20T07:25:54;-4.00;99.90
18648;DHT22;9453;50.294;18.644;2022-11-20T07:28:21;-4.00;99.90
18648;DHT22;9453;50.294;18.644;2022-11-20T07:30:50;-3.90;99.90
18648;DHT22;9453;50.294;18.644;2022-11-20T07:33:17;-3.80;99.90
18648;DHT22;9453;50.294;18.644;2022-11-20T07:35:46;-3.80;99.90
18648;DHT22;9453;50.294;18.644;2022-11-20T07:38:13;-3.70;99.90
18648;DHT22;9453;50.294;18.644;2022-11-20T07:40:40;-3.60;99.90
18648;DHT22;9453;50.294;18.644;2022-11-20T07:43:07;-3.50;99.90
18648;DHT22;9453;50.294;18.644;2022-11-20T07:45:34;-3.50;99.90
18648;DHT22;9453;50.294;18.644;2022-11-20T07:48:01;-3.40;99.90
18648;DHT22;9453;50.294;18.644;2022-11-20T07:50:28;-3.40;99.90
18648;DHT22;9453;50.294;18.644;2022-11-20T07:53:02;-3.30;99.90
18648;DHT22;9453;50.294;18.644;2022-11-20T07:55:29;-3.20;99.90
18648;DHT22;9453;50.294;18.644;2022-11-20T07:57:56;-3.10;99.90
18648;DHT22;9453;50.294;18.644;2022-11-20T08:00:24;-3.00;99.90
18648;DHT22;9453;50.294;18.644;2022-11-20T08:02:52;-3.00;99.90
18648;DHT22;9453;50.294;18.644;2022-11-20T08:05:19;-2.90;99.90
18648;DHT22;9453;50.294;18.644;2022-11-20T08:07:46;-2.80;99.90
18648;DHT22;9453;50.294;18.644;2022-11-20T08:10:15;-2.60;99.90
18648;DHT22;9453;50.294;18.644;2022-11-20T08:12:46;-2.50;99.90
18648;DHT22;9453;50.294;18.644;2022-11-20T08:15:31;-2.40;99.90
18648;DHT22;9453;50.294;18.644;2022-11-20T08:18:05;-2.20;99.90
18648;DHT22;9453;50.294;18.644;2022-11-20T08:20:32;-1.90;99.90
18648;DHT22;9453;50.294;18.644;2022-11-20T08:23:00;-2.10;99.90
18648;DHT22;9453;50.294;18.644;2022-11-20T08:25:32;-2.00;99.90
18648;DHT22;9453;50.294;18.644;2022-11-20T08:27:59;-1.90;99.90
18648;DHT22;9453;50.294;18.644;2022-11-20T08:30:27;-1.80;99.90
18648;DHT22;9453;50.294;18.644;2022-11-20T08:32:54;-1.80;99.90
18648;DHT22;9453;50.294;18.644;2022-11-20T08:35:21;-1.70;99.90
18648;DHT22;9453;50.294;18.644;2022-11-20T08:37:49;-1.60;99.90
18648;DHT22;9453;50.294;18.644;2022-11-20T08:40:16;-1.50;99.90
18648;DHT22;9453;50.294;18.644;2022-11-20T08:42:50;-1.40;99.90
18648;DHT22;9453;50.294;18.644;2022-11-20T08:45:18;-1.30;99.90
18648;DHT22;9453;50.294;18.644;2022-11-20T08:47:46;-1.20;99.90
18648;DHT22;9453;50.294;18.644;2022-11-20T08:50:14;-1.20;99.90
18648;DHT22;9453;50.294;18.644;2022-11-20T08:52:41;-1.10;99.90
18648;DHT22;9453;50.294;18.644;2022-11-20T08:55:09;-1.00;99.90
18648;DHT22;9453;50.294;18.644;2022-11-20T08:57:37;-0.90;99.90
18648;DHT22;9453;50.294;18.644;2022-11-20T09:00:10;-0.80;99.90
18648;DHT22;9453;50.294;18.644;2022-11-20T09:02:38;-0.70;99.90
18648;DHT22;9453;50.294;18.644;2022-11-20T09:05:07;-0.70;99.90
18648;DHT22;9453;50.294;18.644;2022-11-20T09:07:34;-0.60;99.90
18648;DHT22;9453;50.294;18.644;2022-11-20T09:10:02;-0.50;99.90
18648;DHT22;9453;50.294;18.644;2022-11-20T09:12:29;-0.40;99.90
18648;DHT22;9453;50.294;18.644;2022-11-20T09:14:56;-0.30;99.90
18648;DHT22;9453;50.294;18.644;2022-11-20T09:17:25;-0.30;99.90
18648;DHT22;9453;50.294;18.644;2022-11-20T09:19:52;-0.20;99.90
18648;DHT22;9453;50.294;18.644;2022-11-20T09:22:19;-0.20;99.90
18648;DHT22;9453;50.294;18.644;2022-11-20T09:24:46;-0.10;99.90
18648;DHT22;9453;50.294;18.644;2022-11-20T09:27:13;0.00;99.90
18648;DHT22;9453;50.294;18.644;2022-11-20T09:29:40;0.00;99.90
18648;DHT22;9453;50.294;18.644;2022-11-20T09:32:08;0.10;99.90
18648;DHT22;9453;50.294;18.644;2022-11-20T09:34:36;0.20;99.90
18648;DHT22;9453;50.294;18.644;2022-11-20T09:37:04;0.40;99.90
18648;DHT22;9453;50.294;18.644;2022-11-20T09:39:31;0.30;99.90
18648;DHT22;9453;50.294;18.644;2022-11-20T09:42:15;0.40;99.90
18648;DHT22;9453;50.294;18.644;2022-11-20T09:44:55;0.50;99.90
18648;DHT22;9453;50.294;18.644;2022-11-20T09:47:34;0.60;99.90
18648;DHT22;9453;50.294;18.644;2022-11-20T09:50:23;0.60;99.90
18648;DHT22;9453;50.294;18.644;2022-11-20T09:55:39;0.80;99.40
18648;DHT22;9453;50.294;18.644;2022-11-20T09:58:07;0.90;99.20
18648;DHT22;9453;50.294;18.644;2022-11-20T10:00:39;0.90;99.20
18648;DHT22;9453;50.294;18.644;2022-11-20T10:03:13;1.00;98.80
18648;DHT22;9453;50.294;18.644;2022-11-20T10:05:45;1.00;99.00
18648;DHT22;9453;50.294;18.644;2022-11-20T10:08:17;1.00;99.00
18648;DHT22;9453;50.294;18.644;2022-11-20T10:10:48;1.10;98.80
18648;DHT22;9453;50.294;18.644;2022-11-20T10:13:37;1.20;98.60
18648;DHT22;9453;50.294;18.644;2022-11-20T10:16:19;1.30;98.70
18648;DHT22;9453;50.294;18.644;2022-11-20T10:18:58;1.40;98.50
18648;DHT22;9453;50.294;18.644;2022-11-20T10:21:37;1.40;98.20
18648;DHT22;9453;50.294;18.644;2022-11-20T10:24:29;1.40;97.80
18648;DHT22;9453;50.294;18.644;2022-11-20T10:27:08;1.50;97.90
18648;DHT22;9453;50.294;18.644;2022-11-20T10:29:45;1.60;97.70
18648;DHT22;9453;50.294;18.644;2022-11-20T10:32:17;1.60;97.50
18648;DHT22;9453;50.294;18.644;2022-11-20T10:34:50;1.70;97.60
18648;DHT22;9453;50.294;18.644;2022-11-20T10:37:23;1.80;97.50
18648;DHT22;9453;50.294;18.644;2022-11-20T10:39:56;1.80;97.40
18648;DHT22;9453;50.294;18.644;2022-11-20T10:42:30;1.90;97.40
18648;DHT22;9453;50.294;18.644;2022-11-20T10:45:04;1.90;97.20
18648;DHT22;9453;50.294;18.644;2022-11-20T10:47:36;1.90;97.20
18648;DHT22;9453;50.294;18.644;2022-11-20T10:50:08;1.90;97.20
18648;DHT22;9453;50.294;18.644;2022-11-20T10:52:47;1.90;97.20
18648;DHT22;9453;50.294;18.644;2022-11-20T10:55:27;1.90;97.80
18648;DHT22;9453;50.294;18.644;2022-11-20T10:58:02;2.00;97.50
18648;DHT22;9453;50.294;18.644;2022-11-20T11:00:32;2.00;97.60
18648;DHT22;9453;50.294;18.644;2022-11-20T11:02:59;2.00;97.40
18648;DHT22;9453;50.294;18.644;2022-11-20T11:05:36;2.00;97.60
18648;DHT22;9453;50.294;18.644;2022-11-20T11:08:12;2.00;97.80
18648;DHT22;9453;50.294;18.644;2022-11-20T11:10:45;2.10;97.70
18648;DHT22;9453;50.294;18.644;2022-11-20T11:13:21;2.40;98.20
18648;DHT22;9453;50.294;18.644;2022-11-20T11:15:48;2.20;98.20
18648;DHT22;9453;50.294;18.644;2022-11-20T11:18:24;2.20;98.10
18648;DHT22;9453;50.294;18.644;2022-11-20T11:20:53;2.20;98.20
18648;DHT22;9453;50.294;18.644;2022-11-20T11:23:32;2.30;98.30
18648;DHT22;9453;50.294;18.644;2022-11-20T11:26:01;2.40;98.30
18648;DHT22;9453;50.294;18.644;2022-11-20T11:28:29;2.40;98.20
18648;DHT22;9453;50.294;18.644;2022-11-20T11:30:56;2.40;98.30
18648;DHT22;9453;50.294;18.644;2022-11-20T11:33:24;2.50;98.40
18648;DHT22;9453;50.294;18.644;2022-11-20T11:35:53;2.70;98.50
18648;DHT22;9453;50.294;18.644;2022-11-20T11:38:30;2.50;98.50
18648;DHT22;9453;50.294;18.644;2022-11-20T11:40:58;2.60;98.70
18648;DHT22;9453;50.294;18.644;2022-11-20T11:43:28;2.70;98.70
18648;DHT22;9453;50.294;18.644;2022-11-20T11:46:29;2.70;98.90
18648;DHT22;9453;50.294;18.644;2022-11-20T11:49:00;2.70;98.90
18648;DHT22;9453;50.294;18.644;2022-11-20T11:51:32;2.80;99.00
18648;DHT22;9453;50.294;18.644;2022-11-20T11:54:04;2.80;98.70
18648;DHT22;9453;50.294;18.644;2022-11-20T11:56:35;2.90;98.70
18648;DHT22;9453;50.294;18.644;2022-11-20T11:59:05;2.90;98.80
18648;DHT22;9453;50.294;18.644;2022-11-20T12:01:40;2.90;98.80
18648;DHT22;9453;50.294;18.644;2022-11-20T12:04:16;2.90;98.80
18648;DHT22;9453;50.294;18.644;2022-11-20T12:06:50;2.80;98.50
18648;DHT22;9453;50.294;18.644;2022-11-20T12:09:20;2.90;99.00
18648;DHT22;9453;50.294;18.644;2022-11-20T12:11:53;3.00;99.10
18648;DHT22;9453;50.294;18.644;2022-11-20T12:14:27;3.00;98.80
18648;DHT22;9453;50.294;18.644;2022-11-20T12:16:56;3.20;98.70
18648;DHT22;9453;50.294;18.644;2022-11-20T12:19:24;3.10;98.60
18648;DHT22;9453;50.294;18.644;2022-11-20T12:21:58;3.20;98.80
18648;DHT22;9453;50.294;18.644;2022-11-20T12:24:40;3.10;98.60
18648;DHT22;9453;50.294;18.644;2022-11-20T12:27:40;3.10;98.40
18648;DHT22;9453;50.294;18.644;2022-11-20T12:30:12;3.10;98.40
18648;DHT22;9453;50.294;18.644;2022-11-20T12:33:04;3.10;98.40
18648;DHT22;9453;50.294;18.644;2022-11-20T12:35:44;3.10;98.40
18648;DHT22;9453;50.294;18.644;2022-11-20T12:38:34;3.20;98.50
18648;DHT22;9453;50.294;18.644;2022-11-20T12:41:11;3.20;98.70
18648;DHT22;9453;50.294;18.644;2022-11-20T12:44:08;3.00;98.80
18648;DHT22;9453;50.294;18.644;2022-11-20T12:47:10;3.10;98.90
18648;DHT22;9453;50.294;18.644;2022-11-20T12:49:43;3.10;98.90
18648;DHT22;9453;50.294;18.644;2022-11-20T12:52:23;3.10;98.60
18648;DHT22;9453;50.294;18.644;2022-11-20T12:55:14;3.30;98.60
18648;DHT22;9453;50.294;18.644;2022-11-20T12:57:49;3.10;98.50
18648;DHT22;9453;50.294;18.644;2022-11-20T13:00:18;3.20;98.60
18648;DHT22;9453;50.294;18.644;2022-11-20T13:03:09;3.10;98.60
18648;DHT22;9453;50.294;18.644;2022-11-20T13:05:46;3.10;98.70
18648;DHT22;9453;50.294;18.644;2022-11-20T13:08:20;3.10;98.60
18648;DHT22;9453;50.294;18.644;2022-11-20T13:10:54;3.10;98.70
18648;DHT22;9453;50.294;18.644;2022-11-20T13:13:31;3.00;98.40
18648;DHT22;9453;50.294;18.644;2022-11-20T13:16:02;2.90;98.20
18648;DHT22;9453;50.294;18.644;2022-11-20T13:18:38;2.90;98.40
18648;DHT22;9453;50.294;18.644;2022-11-20T13:21:14;3.40;98.90
18648;DHT22;9453;50.294;18.644;2022-11-20T13:23:41;3.10;98.80
18648;DHT22;9453;50.294;18.644;2022-11-20T13:26:16;3.20;98.40
18648;DHT22;9453;50.294;18.644;2022-11-20T13:28:46;3.20;98.60
18648;DHT22;9453;50.294;18.644;2022-11-20T13:31:29;3.50;99.80
18648;DHT22;9453;50.294;18.644;2022-11-20T13:33:57;3.90;98.30
18648;DHT22;9453;50.294;18.644;2022-11-20T13:36:27;3.30;97.80
18648;DHT22;9453;50.294;18.644;2022-11-20T13:38:56;3.30;97.20
18648;DHT22;9453;50.294;18.644;2022-11-20T13:41:25;3.60;97.30
18648;DHT22;9453;50.294;18.644;2022-11-20T13:44:05;3.40;97.60
18648;DHT22;9453;50.294;18.644;2022-11-20T13:46:37;3.40;97.00
18648;DHT22;9453;50.294;18.644;2022-11-20T13:49:16;3.40;96.90
18648;DHT22;9453;50.294;18.644;2022-11-20T13:51:45;3.30;96.50
18648;DHT22;9453;50.294;18.644;2022-11-20T13:54:43;3.30;96.50
18648;DHT22;9453;50.294;18.644;2022-11-20T13:57:32;3.30;96.40
18648;DHT22;9453;50.294;18.644;2022-11-20T14:00:12;3.40;96.40
18648;DHT22;9453;50.294;18.644;2022-11-20T14:02:40;3.30;96.40
18648;DHT22;9453;50.294;18.644;2022-11-20T14:05:18;3.30;96.50
18648;DHT22;9453;50.294;18.644;2022-11-20T14:07:45;3.20;96.50
18648;DHT22;9453;50.294;18.644;2022-11-20T14:10:21;3.30;96.50
18648;DHT22;9453;50.294;18.644;2022-11-20T14:12:49;3.20;96.40
18648;DHT22;9453;50.294;18.644;2022-11-20T14:15:27;3.20;96.40
18648;DHT22;9453;50.294;18.644;2022-11-20T14:17:55;3.30;96.60
18648;DHT22;9453;50.294;18.644;2022-11-20T14:20:24;3.10;96.50
18648;DHT22;9453;50.294;18.644;2022-11-20T14:22:53;3.10;96.70
18648;DHT22;9453;50.294;18.644;2022-11-20T14:25:22;3.10;96.80
18648;DHT22;9453;50.294;18.644;2022-11-20T14:27:53;3.00;96.90
18648;DHT22;9453;50.294;18.644;2022-11-20T14:30:23;3.00;97.10
18648;DHT22;9453;50.294;18.644;2022-11-20T14:32:56;3.00;97.10
18648;DHT22;9453;50.294;18.644;2022-11-20T14:35:27;3.00;97.10
18648;DHT22;9453;50.294;18.644;2022-11-20T14:37:55;3.00;97.20
18648;DHT22;9453;50.294;18.644;2022-11-20T14:40:28;3.00;97.40
18648;DHT22;9453;50.294;18.644;2022-11-20T14:42:57;3.00;97.30
18648;DHT22;9453;50.294;18.644;2022-11-20T14:45:24;2.90;97.70
18648;DHT22;9453;50.294;18.644;2022-11-20T14:47:54;3.10;98.00
18648;DHT22;9453;50.294;18.644;2022-11-20T14:50:25;3.00;98.00
18648;DHT22;9453;50.294;18.644;2022-11-20T14:52:54;3.00;98.10
18648;DHT22;9453;50.294;18.644;2022-11-20T14:55:32;2.90;98.10
18648;DHT22;9453;50.294;18.644;2022-11-20T14:58:01;2.90;98.30
18648;DHT22;9453;50.294;18.644;2022-11-20T15:00:30;2.90;98.30
18648;DHT22;9453;50.294;18.644;2022-11-20T15:02:59;2.80;98.50
18648;DHT22;9453;50.294;18.644;2022-11-20T15:05:43;3.00;98.90
18648;DHT22;9453;50.294;18.644;2022-11-20T15:08:12;2.80;98.80
18648;DHT22;9453;50.294;18.644;2022-11-20T15:10:45;2.80;99.00
18648;DHT22;9453;50.294;18.644;2022-11-20T15:13:14;2.80;99.00
18648;DHT22;9453;50.294;18.644;2022-11-20T15:15:45;2.80;99.10
18648;DHT22;9453;50.294;18.644;2022-11-20T15:18:16;2.80;99.30
18648;DHT22;9453;50.294;18.644;2022-11-20T15:20:43;2.80;99.40
18648;DHT22;9453;50.294;18.644;2022-11-20T15:23:12;2.80;99.60
18648;DHT22;9453;50.294;18.644;2022-11-20T15:25:40;2.80;99.80
18648;DHT22;9453;50.294;18.644;2022-11-20T15:28:13;2.80;99.80
18648;DHT22;9453;50.294;18.644;2022-11-20T15:30:42;2.80;99.90
18648;DHT22;9453;50.294;18.644;2022-11-20T15:33:10;2.80;99.90
18648;DHT22;9453;50.294;18.644;2022-11-20T15:35:38;2.70;99.90
18648;DHT22;9453;50.294;18.644;2022-11-20T15:38:06;2.70;99.90
18648;DHT22;9453;50.294;18.644;2022-11-20T15:40:33;2.80;99.90
18648;DHT22;9453;50.294;18.644;2022-11-20T15:43:00;2.70;99.90
18648;DHT22;9453;50.294;18.644;2022-11-20T15:45:41;2.80;99.90
18648;DHT22;9453;50.294;18.644;2022-11-20T15:48:12;2.80;99.90
18648;DHT22;9453;50.294;18.644;2022-11-20T15:50:49;2.80;99.90
18648;DHT22;9453;50.294;18.644;2022-11-20T15:53:17;2.90;99.90
18648;DHT22;9453;50.294;18.644;2022-11-20T15:55:44;2.70;99.90
18648;DHT22;9453;50.294;18.644;2022-11-20T15:58:13;2.80;99.90
18648;DHT22;9453;50.294;18.644;2022-11-20T16:00:42;2.70;99.90
18648;DHT22;9453;50.294;18.644;2022-11-20T16:03:13;2.90;99.90
18648;DHT22;9453;50.294;18.644;2022-11-20T16:05:42;2.80;99.90
18648;DHT22;9453;50.294;18.644;2022-11-20T16:08:09;2.70;99.90
18648;DHT22;9453;50.294;18.644;2022-11-20T16:10:36;2.70;99.90
18648;DHT22;9453;50.294;18.644;2022-11-20T16:13:03;2.60;99.90
18648;DHT22;9453;50.294;18.644;2022-11-20T16:15:51;2.60;99.90
18648;DHT22;9453;50.294;18.644;2022-11-20T16:18:21;2.40;99.90
18648;DHT22;9453;50.294;18.644;2022-11-20T16:20:52;2.30;99.90
18648;DHT22;9453;50.294;18.644;2022-11-20T16:23:20;2.20;99.90
18648;DHT22;9453;50.294;18.644;2022-11-20T16:25:48;2.30;99.90
18648;DHT22;9453;50.294;18.644;2022-11-20T16:28:16;2.10;99.90
18648;DHT22;9453;50.294;18.644;2022-11-20T16:30:44;2.00;99.90
18648;DHT22;9453;50.294;18.644;2022-11-20T16:33:12;1.90;99.90
18648;DHT22;9453;50.294;18.644;2022-11-20T16:35:39;2.10;99.90
18648;DHT22;9453;50.294;18.644;2022-11-20T16:38:12;1.90;99.90
18648;DHT22;9453;50.294;18.644;2022-11-20T16:40:40;1.80;99.90
18648;DHT22;9453;50.294;18.644;2022-11-20T16:43:08;1.70;99.90
18648;DHT22;9453;50.294;18.644;2022-11-20T16:45:43;1.60;99.90
18648;DHT22;9453;50.294;18.644;2022-11-20T16:48:15;1.50;99.90
18648;DHT22;9453;50.294;18.644;2022-11-20T16:50:47;1.70;99.90
18648;DHT22;9453;50.294;18.644;2022-11-20T16:53:16;1.50;99.90
18648;DHT22;9453;50.294;18.644;2022-11-20T16:55:44;1.50;99.90
18648;DHT22;9453;50.294;18.644;2022-11-20T16:58:12;1.50;99.90
18648;DHT22;9453;50.294;18.644;2022-11-20T17:00:40;1.40;99.90
18648;DHT22;9453;50.294;18.644;2022-11-20T17:03:07;1.40;99.90
18648;DHT22;9453;50.294;18.644;2022-11-20T17:05:34;1.30;99.90
18648;DHT22;9453;50.294;18.644;2022-11-20T17:08:01;1.30;99.90
18648;DHT22;9453;50.294;18.644;2022-11-20T17:10:30;1.30;99.90
18648;DHT22;9453;50.294;18.644;2022-11-20T17:12:57;1.10;99.90
18648;DHT22;9453;50.294;18.644;2022-11-20T17:15:24;1.10;99.90
18648;DHT22;9453;50.294;18.644;2022-11-20T17:17:51;1.10;99.90
18648;DHT22;9453;50.294;18.644;2022-11-20T17:20:18;1.10;99.90
18648;DHT22;9453;50.294;18.644;2022-11-20T17:22:45;1.10;99.90
18648;DHT22;9453;50.294;18.644;2022-11-20T17:25:15;1.00;99.90
18648;DHT22;9453;50.294;18.644;2022-11-20T17:27:44;1.00;99.90
18648;DHT22;9453;50.294;18.644;2022-11-20T17:30:11;1.10;99.90
18648;DHT22;9453;50.294;18.644;2022-11-20T17:32:38;1.00;99.90
18648;DHT22;9453;50.294;18.644;2022-11-20T17:35:10;0.90;99.90
18648;DHT22;9453;50.294;18.644;2022-11-20T17:37:37;0.90;99.90
18648;DHT22;9453;50.294;18.644;2022-11-20T17:40:05;0.90;99.90
18648;DHT22;9453;50.294;18.644;2022-11-20T17:42:32;0.80;99.90
18648;DHT22;9453;50.294;18.644;2022-11-20T17:45:03;0.80;99.90
18648;DHT22;9453;50.294;18.644;2022-11-20T17:47:30;0.70;99.90
18648;DHT22;9453;50.294;18.644;2022-11-20T17:49:58;0.70;99.90
18648;DHT22;9453;50.294;18.644;2022-11-20T17:52:25;0.70;99.90
18648;DHT22;9453;50.294;18.644;2022-11-20T17:54:52;0.80;99.90
18648;DHT22;9453;50.294;18.644;2022-11-20T17:57:21;0.70;99.90
18648;DHT22;9453;50.294;18.644;2022-11-20T18:00:10;0.70;99.90
18648;DHT22;9453;50.294;18.644;2022-11-20T18:02:38;0.60;99.90
18648;DHT22;9453;50.294;18.644;2022-11-20T18:05:07;0.60;99.90
18648;DHT22;9453;50.294;18.644;2022-11-20T18:07:35;0.60;99.90
18648;DHT22;9453;50.294;18.644;2022-11-20T18:10:02;0.60;99.90
18648;DHT22;9453;50.294;18.644;2022-11-20T18:12:30;0.70;99.90
18648;DHT22;9453;50.294;18.644;2022-11-20T18:14:57;0.70;99.90
18648;DHT22;9453;50.294;18.644;2022-11-20T18:17:26;0.70;99.90
18648;DHT22;9453;50.294;18.644;2022-11-20T18:19:53;0.80;99.90
18648;DHT22;9453;50.294;18.644;2022-11-20T18:22:20;0.80;99.90
18648;DHT22;9453;50.294;18.644;2022-11-20T18:24:48;0.70;99.90
18648;DHT22;9453;50.294;18.644;2022-11-20T18:27:17;0.80;99.90
18648;DHT22;9453;50.294;18.644;2022-11-20T18:29:46;0.80;99.90
18648;DHT22;9453;50.294;18.644;2022-11-20T18:32:16;0.80;99.90
18648;DHT22;9453;50.294;18.644;2022-11-20T18:34:44;0.80;99.90
18648;DHT22;9453;50.294;18.644;2022-11-20T18:37:11;0.80;99.90
18648;DHT22;9453;50.294;18.644;2022-11-20T18:39:41;0.90;99.90
18648;DHT22;9453;50.294;18.644;2022-11-20T18:42:11;1.00;99.90
18648;DHT22;9453;50.294;18.644;2022-11-20T18:44:55;1.00;99.90
18648;DHT22;9453;50.294;18.644;2022-11-20T18:47:26;0.80;99.90
18648;DHT22;9453;50.294;18.644;2022-11-20T18:49:59;0.80;99.90
18648;DHT22;9453;50.294;18.644;2022-11-20T18:52:28;0.80;99.90
18648;DHT22;9453;50.294;18.644;2022-11-20T18:54:58;0.80;99.90
18648;DHT22;9453;50.294;18.644;2022-11-20T18:57:27;0.80;99.90
18648;DHT22;9453;50.294;18.644;2022-11-20T18:59:54;0.80;99.90
18648;DHT22;9453;50.294;18.644;2022-11-20T19:02:24;0.90;99.90
18648;DHT22;9453;50.294;18.644;2022-11-20T19:04:52;0.90;99.90
18648;DHT22;9453;50.294;18.644;2022-11-20T19:07:22;0.90;99.90
18648;DHT22;9453;50.294;18.644;2022-11-20T19:09:53;0.90;99.90
18648;DHT22;9453;50.294;18.644;2022-11-20T19:12:20;0.90;99.90
18648;DHT22;9453;50.294;18.644;2022-11-20T19:14:47;0.90;99.90
18648;DHT22;9453;50.294;18.644;2022-11-20T19:17:14;0.90;99.90
18648;DHT22;9453;50.294;18.644;2022-11-20T19:19:42;0.90;99.90
18648;DHT22;9453;50.294;18.644;2022-11-20T19:22:09;1.00;99.90
18648;DHT22;9453;50.294;18.644;2022-11-20T19:24:37;1.00;99.90
18648;DHT22;9453;50.294;18.644;2022-11-20T19:27:05;1.00;99.90
18648;DHT22;9453;50.294;18.644;2022-11-20T19:29:32;1.00;99.90
18648;DHT22;9453;50.294;18.644;2022-11-20T19:31:59;1.00;99.90
18648;DHT22;9453;50.294;18.644;2022-11-20T19:34:29;1.10;99.90
18648;DHT22;9453;50.294;18.644;2022-11-20T19:36:58;1.00;99.90
18648;DHT22;9453;50.294;18.644;2022-11-20T19:39:25;0.80;99.90
18648;DHT22;9453;50.294;18.644;2022-11-20T19:41:54;1.00;99.90
18648;DHT22;9453;50.294;18.644;2022-11-20T19:44:22;1.10;99.90
18648;DHT22;9453;50.294;18.644;2022-11-20T19:46:52;0.90;99.90
18648;DHT22;9453;50.294;18.644;2022-11-20T19:49:21;1.00;99.90
18648;DHT22;9453;50.294;18.644;2022-11-20T19:51:48;0.90;99.90
18648;DHT22;9453;50.294;18.644;2022-11-20T19:54:16;0.90;99.90
18648;DHT22;9453;50.294;18.644;2022-11-20T19:56:43;0.90;99.90
18648;DHT22;9453;50.294;18.644;2022-11-20T19:59:13;0.90;99.90
18648;DHT22;9453;50.294;18.644;2022-11-20T20:01:41;0.90;99.90
18648;DHT22;9453;50.294;18.644;2022-11-20T20:04:08;0.90;99.90
18648;DHT22;9453;50.294;18.644;2022-11-20T20:06:37;0.90;99.90
18648;DHT22;9453;50.294;18.644;2022-11-20T20:09:10;0.80;99.90
18648;DHT22;9453;50.294;18.644;2022-11-20T20:11:43;0.90;99.90
18648;DHT22;9453;50.294;18.644;2022-11-20T20:14:14;0.90;99.90
18648;DHT22;9453;50.294;18.644;2022-11-20T20:16:43;0.90;99.90
18648;DHT22;9453;50.294;18.644;2022-11-20T20:19:12;0.90;99.90
18648;DHT22;9453;50.294;18.644;2022-11-20T20:21:39;0.90;99.90
18648;DHT22;9453;50.294;18.644;2022-11-20T20:24:08;0.90;99.90
18648;DHT22;9453;50.294;18.644;2022-11-20T20:26:35;0.90;99.90
18648;DHT22;9453;50.294;18.644;2022-11-20T20:29:02;1.10;99.90
18648;DHT22;9453;50.294;18.644;2022-11-20T20:31:31;0.80;99.90
18648;DHT22;9453;50.294;18.644;2022-11-20T20:33:59;0.80;99.90
18648;DHT22;9453;50.294;18.644;2022-11-20T20:36:27;0.80;99.90
18648;DHT22;9453;50.294;18.644;2022-11-20T20:38:55;0.90;99.90
18648;DHT22;9453;50.294;18.644;2022-11-20T20:41:24;0.70;99.90
18648;DHT22;9453;50.294;18.644;2022-11-20T20:43:52;0.90;99.90
18648;DHT22;9453;50.294;18.644;2022-11-20T20:46:38;0.90;99.90
18648;DHT22;9453;50.294;18.644;2022-11-20T20:49:06;0.90;99.90
18648;DHT22;9453;50.294;18.644;2022-11-20T20:51:33;1.00;99.90
18648;DHT22;9453;50.294;18.644;2022-11-20T20:54:01;1.00;99.90
18648;DHT22;9453;50.294;18.644;2022-11-20T20:56:28;1.20;99.90
18648;DHT22;9453;50.294;18.644;2022-11-20T20:58:55;1.20;99.90
18648;DHT22;9453;50.294;18.644;2022-11-20T21:01:24;1.20;99.90
18648;DHT22;9453;50.294;18.644;2022-11-20T21:03:54;1.30;99.90
18648;DHT22;9453;50.294;18.644;2022-11-20T21:06:22;1.30;99.90
18648;DHT22;9453;50.294;18.644;2022-11-20T21:08:49;1.30;99.90